Time;durP1;ratioP1;P1;durP2;ratioP2;P2;SDS_P1;SDS_P2;PMS_P1;PMS_P2;Temp;Humidity;BMP_temperature;BMP_pressure;BME280_temperature;BME280_humidity;BME280_pressure;Samples;Min_cycle;Max_cycle;Signal;HPM_P1;HPM_P2
2024/02/03 00:02:20;;;;;;;0.43;0.43;;;7.50;99.90;;;;;;4965838;28;20199;-80
2024/02/03 00:04:47;;;;;;;1.58;1.48;;;7.40;99.90;;;;;;4959622;28;20222;-81
2024/02/03 00:07:14;;;;;;;0.98;0.82;;;7.50;99.90;;;;;;4936955;28;20266;-81
2024/02/03 00:09:41;;;;;;;1.48;1.42;;;7.50;99.90;;;;;;4971428;28;20523;-81
2024/02/03 00:12:09;;;;;;;5.93;5.57;;;7.60;99.90;;;;;;4952466;28;20263;-81
2024/02/03 00:14:36;;;;;;;1.95;1.85;;;7.50;99.90;;;;;;4958850;28;20650;-80
2024/02/03 00:17:04;;;;;;;0.80;0.80;;;7.50;99.90;;;;;;4935543;28;20251;-80
2024/02/03 00:19:31;;;;;;;0.68;0.68;;;7.50;99.90;;;;;;4950938;28;20211;-81
2024/02/03 00:22:00;;;;;;;0.82;0.82;;;7.40;99.90;;;;;;4951874;28;20243;-83
2024/02/03 00:24:28;;;;;;;0.50;0.50;;;7.40;99.90;;;;;;4931102;29;20277;-80
2024/02/03 00:26:55;;;;;;;0.60;0.60;;;7.40;99.90;;;;;;4957288;28;20215;-84
2024/02/03 00:29:22;;;;;;;1.00;1.00;;;7.50;99.90;;;;;;4965127;28;20207;-83
2024/02/03 00:31:50;;;;;;;0.93;0.93;;;7.50;99.90;;;;;;4961012;28;20219;-82
2024/02/03 00:34:18;;;;;;;1.90;1.75;;;7.50;99.90;;;;;;4972855;28;20214;-81
2024/02/03 00:36:45;;;;;;;0.47;0.47;;;7.50;99.90;;;;;;4966884;28;20644;-80
2024/02/03 00:39:12;;;;;;;1.17;1.17;;;7.50;99.90;;;;;;4954285;28;20219;-80
2024/02/03 00:41:40;;;;;;;0.50;0.50;;;7.50;99.90;;;;;;4957070;28;20558;-81
2024/02/03 00:44:07;;;;;;;0.55;0.55;;;7.60;99.90;;;;;;4945998;28;20778;-83
2024/02/03 00:46:35;;;;;;;0.70;0.70;;;7.50;99.90;;;;;;4962305;28;20211;-82
2024/02/03 00:49:02;;;;;;;1.17;1.17;;;7.50;99.90;;;;;;4948514;28;20223;-83
2024/02/03 00:51:32;;;;;;;2.38;2.17;;;7.60;99.90;;;;;;4954781;28;20245;-80
2024/02/03 00:54:00;;;;;;;1.40;1.40;;;7.50;99.90;;;;;;4938694;28;20282;-85
2024/02/03 00:56:30;;;;;;;1.80;1.70;;;7.60;99.90;;;;;;4955760;28;20282;-80
2024/02/03 00:58:57;;;;;;;0.50;0.50;;;7.60;99.90;;;;;;4947122;28;20231;-80
2024/02/03 01:01:24;;;;;;;0.50;0.50;;;7.60;99.90;;;;;;4950588;28;20219;-82
2024/02/03 01:03:54;;;;;;;0.50;0.50;;;7.60;99.90;;;;;;4943486;28;20210;-80
2024/02/03 01:06:22;;;;;;;7.25;2.78;;;7.60;99.90;;;;;;4961767;28;20207;-80
2024/02/03 01:08:51;;;;;;;0.50;0.50;;;7.60;99.90;;;;;;4957399;28;20264;-79
2024/02/03 01:11:20;;;;;;;1.13;1.13;;;7.60;99.90;;;;;;4954607;28;20273;-81
2024/02/03 01:13:47;;;;;;;0.80;0.80;;;7.60;99.90;;;;;;4936268;29;20281;-80
2024/02/03 01:16:15;;;;;;;0.93;0.93;;;7.60;99.90;;;;;;4949676;28;20266;-80
2024/02/03 01:18:44;;;;;;;0.68;0.68;;;7.60;99.90;;;;;;4966437;28;20242;-81
2024/02/03 01:21:20;;;;;;;2.22;2.13;;;7.60;99.90;;;;;;4966299;28;20214;-80
2024/02/03 01:23:48;;;;;;;0.50;0.50;;;7.60;99.90;;;;;;4959324;28;20218;-79
2024/02/03 01:26:17;;;;;;;2.35;2.25;;;7.60;99.90;;;;;;4950127;28;20286;-79
2024/02/03 01:28:45;;;;;;;0.47;0.47;;;7.60;99.90;;;;;;4952487;28;20274;-78
2024/02/03 01:31:12;;;;;;;0.93;0.93;;;7.60;99.90;;;;;;4958096;28;20297;-80
2024/02/03 01:33:40;;;;;;;1.75;1.65;;;7.60;99.90;;;;;;4954521;28;20277;-78
2024/02/03 01:36:08;;;;;;;0.75;0.75;;;7.60;99.90;;;;;;4945598;29;20210;-80
2024/02/03 01:38:35;;;;;;;0.82;0.68;;;7.60;99.90;;;;;;4951265;28;20266;-81
2024/02/03 01:41:06;;;;;;;0.82;0.82;;;7.60;99.90;;;;;;4953485;28;20208;-80
2024/02/03 01:43:33;;;;;;;1.35;1.25;;;7.60;99.90;;;;;;4964481;28;20262;-82
2024/02/03 01:46:01;;;;;;;0.70;0.70;;;7.60;99.90;;;;;;4941561;29;20239;-79
2024/02/03 01:48:28;;;;;;;2.47;2.35;;;7.60;99.90;;;;;;4932785;28;20877;-79
2024/02/03 01:50:56;;;;;;;0.65;0.65;;;7.60;99.90;;;;;;4946935;28;20282;-79
2024/02/03 01:53:23;;;;;;;2.17;1.98;;;7.60;99.90;;;;;;4949395;28;20396;-78
2024/02/03 01:55:53;;;;;;;0.50;0.50;;;7.70;99.90;;;;;;4971039;28;20270;-77
2024/02/03 01:58:21;;;;;;;1.33;1.33;;;7.70;99.90;;;;;;4975621;28;20261;-79
2024/02/03 02:00:48;;;;;;;0.63;0.63;;;7.60;99.90;;;;;;4979816;28;20259;-80
2024/02/03 02:03:16;;;;;;;1.80;1.63;;;7.60;99.90;;;;;;4950088;28;20236;-80
2024/02/03 02:05:45;;;;;;;1.02;1.02;;;7.70;99.90;;;;;;4959233;28;20274;-80
2024/02/03 02:08:11;;;;;;;1.00;1.00;;;7.70;99.90;;;;;;4955990;28;20208;-83
2024/02/03 02:10:39;;;;;;;1.17;1.17;;;7.70;99.90;;;;;;4942873;29;20623;-80
2024/02/03 02:13:07;;;;;;;2.15;2.05;;;7.70;99.90;;;;;;4940699;28;20246;-81
2024/02/03 02:15:35;;;;;;;0.95;0.95;;;7.70;99.90;;;;;;4954729;28;20222;-82
2024/02/03 02:18:02;;;;;;;0.52;0.52;;;7.70;99.90;;;;;;4949757;28;20271;-80
2024/02/03 02:20:29;;;;;;;0.70;0.70;;;7.70;99.90;;;;;;4956427;28;20211;-83
2024/02/03 02:22:58;;;;;;;1.63;1.52;;;7.70;99.90;;;;;;4948358;29;20234;-79
2024/02/03 02:25:27;;;;;;;0.50;0.50;;;7.70;99.90;;;;;;4951882;28;20255;-80
2024/02/03 02:27:59;;;;;;;1.17;1.10;;;7.70;99.90;;;;;;4959576;28;20694;-80
2024/02/03 02:30:26;;;;;;;0.80;0.80;;;7.70;99.90;;;;;;4937078;29;20336;-79
2024/02/03 02:32:53;;;;;;;0.50;0.50;;;7.70;99.90;;;;;;4949839;28;20215;-81
2024/02/03 02:35:22;;;;;;;1.02;1.00;;;7.70;99.90;;;;;;4964573;28;20215;-82
2024/02/03 02:37:51;;;;;;;1.70;1.60;;;7.70;99.90;;;;;;4961265;28;20220;-81
2024/02/03 02:40:19;;;;;;;1.08;1.08;;;7.70;99.90;;;;;;4964239;28;20214;-80
2024/02/03 02:42:46;;;;;;;3.08;2.88;;;7.60;99.90;;;;;;4957869;28;20283;-80
2024/02/03 02:45:13;;;;;;;0.75;0.75;;;7.70;99.90;;;;;;4929726;28;20208;-79
2024/02/03 02:47:43;;;;;;;4.20;1.08;;;7.60;99.90;;;;;;4955613;28;20258;-79
2024/02/03 02:50:12;;;;;;;0.60;0.60;;;7.60;99.90;;;;;;4944609;28;20247;-80
2024/02/03 02:52:41;;;;;;;1.77;1.67;;;7.60;99.90;;;;;;4949988;28;20360;-78
2024/02/03 02:55:09;;;;;;;1.30;1.25;;;7.50;99.90;;;;;;4942060;29;20275;-84
2024/02/03 02:57:36;;;;;;;1.55;1.45;;;7.60;99.90;;;;;;4964619;28;20204;-81
2024/02/03 03:00:09;;;;;;;0.60;0.60;;;7.60;99.90;;;;;;4961389;28;20205;-81
2024/02/03 03:02:38;;;;;;;1.08;1.08;;;7.50;99.90;;;;;;4948227;29;20223;-81
2024/02/03 03:05:11;;;;;;;0.57;0.57;;;7.50;99.90;;;;;;4963788;28;20570;-82
2024/02/03 03:07:42;;;;;;;1.02;1.02;;;7.50;99.90;;;;;;4953518;28;20204;-81
2024/02/03 03:10:12;;;;;;;0.80;0.80;;;7.50;99.90;;;;;;4958521;28;20514;-84
2024/02/03 03:12:40;;;;;;;2.45;2.35;;;7.50;99.90;;;;;;4964427;28;20234;-82
2024/02/03 03:15:16;;;;;;;4.35;3.95;;;7.60;99.90;;;;;;4956427;28;20215;-80
2024/02/03 03:17:43;;;;;;;1.23;1.23;;;7.50;99.90;;;;;;4953158;28;20299;-80
2024/02/03 03:20:12;;;;;;;0.40;0.40;;;7.60;99.90;;;;;;4960887;28;20238;-80
2024/02/03 03:22:42;;;;;;;0.63;0.63;;;7.40;99.90;;;;;;4961762;28;20630;-82
2024/02/03 03:25:09;;;;;;;0.80;0.80;;;7.40;99.90;;;;;;4957711;28;20264;-79
2024/02/03 03:27:39;;;;;;;0.50;0.50;;;7.30;99.90;;;;;;4952171;29;20278;-83
2024/02/03 03:30:08;;;;;;;0.40;0.40;;;7.30;99.90;;;;;;4948121;28;20246;-79
2024/02/03 03:32:35;;;;;;;1.00;1.00;;;7.30;99.90;;;;;;4931594;28;20233;-82
2024/02/03 03:35:03;;;;;;;0.40;0.40;;;7.30;99.90;;;;;;4943729;29;20206;-79
2024/02/03 03:37:31;;;;;;;1.00;1.00;;;7.30;99.90;;;;;;4951041;28;20218;-83
2024/02/03 03:40:02;;;;;;;2.38;2.28;;;7.30;99.90;;;;;;4938838;29;20208;-82
2024/02/03 03:42:31;;;;;;;0.50;0.50;;;7.30;99.90;;;;;;4950309;28;20226;-79
2024/02/03 03:44:59;;;;;;;0.98;0.90;;;7.30;99.90;;;;;;4964557;28;20202;-81
2024/02/03 03:47:27;;;;;;;1.30;1.30;;;7.30;99.90;;;;;;4954383;28;20215;-79
2024/02/03 03:49:57;;;;;;;0.60;0.60;;;7.30;99.90;;;;;;4963050;28;20207;-78
2024/02/03 03:52:24;;;;;;;3.00;2.88;;;7.30;99.90;;;;;;4944778;29;20430;-82
2024/02/03 03:54:51;;;;;;;0.73;0.73;;;7.30;99.90;;;;;;4951288;28;20233;-83
2024/02/03 03:57:19;;;;;;;2.35;2.25;;;7.30;99.90;;;;;;4931287;28;20327;-82
2024/02/03 03:59:46;;;;;;;0.52;0.52;;;7.40;99.90;;;;;;4929759;29;20250;-82
2024/02/03 04:02:14;;;;;;;0.82;0.82;;;7.40;99.90;;;;;;4951812;28;20212;-78
2024/02/03 04:04:41;;;;;;;1.65;1.55;;;7.40;99.90;;;;;;4960599;28;20211;-80
2024/02/03 04:07:10;;;;;;;1.58;1.48;;;7.40;99.90;;;;;;4945682;29;20271;-81
2024/02/03 04:09:40;;;;;;;0.50;0.50;;;7.40;99.90;;;;;;4961330;28;20204;-80
2024/02/03 04:12:07;;;;;;;0.82;0.82;;;7.40;99.90;;;;;;4936175;29;20235;-78
2024/02/03 04:14:34;;;;;;;0.73;0.73;;;7.40;99.90;;;;;;4943909;28;20512;-82
2024/02/03 04:17:03;;;;;;;1.65;1.55;;;7.50;99.90;;;;;;4950946;29;20196;-80
2024/02/03 04:19:35;;;;;;;0.40;0.40;;;7.50;99.90;;;;;;4954394;28;20208;-80
2024/02/03 04:22:03;;;;;;;0.73;0.73;;;7.50;99.90;;;;;;4958264;28;20416;-80
2024/02/03 04:24:30;;;;;;;0.98;0.85;;;7.50;99.90;;;;;;4952564;28;20283;-80
2024/02/03 04:26:58;;;;;;;1.30;1.05;;;7.60;99.90;;;;;;4966850;28;20527;-81
2024/02/03 04:29:25;;;;;;;2.20;2.10;;;7.40;99.90;;;;;;4955060;28;20238;-80
2024/02/03 04:31:52;;;;;;;0.60;0.60;;;7.60;99.90;;;;;;4957950;28;20600;-83
2024/02/03 04:34:33;;;;;;;0.63;0.63;;;7.60;99.90;;;;;;4965199;28;20203;-82
2024/02/03 04:37:04;;;;;;;0.40;0.40;;;7.60;99.90;;;;;;4948729;29;20200;-81
2024/02/03 04:39:33;;;;;;;1.17;1.08;;;7.70;99.90;;;;;;4955018;28;20423;-80
2024/02/03 04:42:00;;;;;;;0.40;0.40;;;7.70;99.90;;;;;;4946677;28;20242;-83
2024/02/03 04:44:27;;;;;;;1.60;1.50;;;7.70;99.90;;;;;;4960634;28;20224;-83
2024/02/03 04:46:57;;;;;;;0.77;0.77;;;7.70;99.90;;;;;;4947852;29;20672;-79
2024/02/03 04:49:24;;;;;;;1.02;1.02;;;7.80;99.90;;;;;;4951306;28;20230;-81
2024/02/03 04:51:55;;;;;;;0.60;0.60;;;7.80;99.90;;;;;;4955746;28;20265;-79
2024/02/03 04:54:21;;;;;;;0.60;0.60;;;7.80;99.90;;;;;;4945468;29;20207;-80
2024/02/03 04:56:55;;;;;;;0.40;0.40;;;7.80;99.90;;;;;;4946654;28;20293;-80
2024/02/03 04:59:23;;;;;;;0.70;0.70;;;7.80;99.90;;;;;;4960500;28;20394;-83
2024/02/03 05:01:51;;;;;;;1.00;1.00;;;7.80;99.90;;;;;;4941411;29;20281;-81
2024/02/03 05:04:23;;;;;;;2.75;2.55;;;7.90;99.90;;;;;;4945579;29;20278;-82
2024/02/03 05:06:52;;;;;;;1.58;1.55;;;7.90;99.90;;;;;;4941777;29;20233;-82
2024/02/03 05:09:20;;;;;;;1.65;1.55;;;7.90;99.90;;;;;;4968935;28;20230;-79
2024/02/03 05:11:47;;;;;;;2.60;2.50;;;7.90;99.90;;;;;;4962583;29;20238;-81
2024/02/03 05:14:14;;;;;;;2.85;2.70;;;7.90;99.90;;;;;;4949698;28;20396;-82
2024/02/03 05:16:42;;;;;;;0.50;0.50;;;8.00;99.90;;;;;;4958072;28;20702;-80
2024/02/03 05:19:12;;;;;;;1.80;1.70;;;7.90;99.90;;;;;;4963228;28;20267;-82
2024/02/03 05:21:44;;;;;;;0.75;0.75;;;8.10;99.90;;;;;;4968357;28;20251;-80
2024/02/03 05:24:13;;;;;;;0.90;0.90;;;8.10;99.90;;;;;;4974685;28;20207;-80
2024/02/03 05:26:46;;;;;;;0.60;0.60;;;8.20;99.90;;;;;;4951938;28;20223;-78
2024/02/03 05:29:14;;;;;;;0.60;0.60;;;8.10;99.90;;;;;;4964328;28;20266;-82
2024/02/03 05:31:42;;;;;;;0.80;0.80;;;8.10;99.90;;;;;;4952087;29;20247;-81
2024/02/03 05:34:09;;;;;;;0.50;0.50;;;8.10;99.90;;;;;;4955770;29;20440;-83
2024/02/03 05:36:40;;;;;;;0.57;0.57;;;8.20;99.90;;;;;;4960747;28;20207;-79
2024/02/03 05:39:16;;;;;;;0.85;0.85;;;8.20;99.90;;;;;;4935305;29;20208;-81
2024/02/03 05:41:45;;;;;;;0.40;0.40;;;8.20;99.90;;;;;;4961053;29;20207;-79
2024/02/03 05:44:12;;;;;;;0.93;0.93;;;8.20;99.90;;;;;;4951591;28;20247;-83
2024/02/03 05:46:40;;;;;;;0.65;0.65;;;8.20;99.90;;;;;;4950898;28;20208;-79
2024/02/03 05:49:07;;;;;;;1.73;1.65;;;8.30;99.90;;;;;;4957442;29;20211;-81
2024/02/03 05:51:34;;;;;;;0.73;0.73;;;8.30;99.90;;;;;;4956307;28;20235;-80
2024/02/03 05:54:03;;;;;;;0.90;0.90;;;8.30;99.90;;;;;;4942521;29;20236;-80
2024/02/03 05:56:39;;;;;;;0.88;0.88;;;8.30;99.90;;;;;;4931416;29;20204;-81
2024/02/03 05:59:06;;;;;;;0.82;0.82;;;8.30;99.90;;;;;;4952887;29;20200;-82
2024/02/03 06:01:55;;;;;;;2.15;2.05;;;8.30;99.90;;;;;;4941920;29;20212;-83
2024/02/03 06:04:25;;;;;;;0.50;0.50;;;8.40;99.90;;;;;;4972782;28;20207;-80
2024/02/03 06:06:55;;;;;;;0.40;0.40;;;8.40;99.90;;;;;;4974788;28;20209;-83
2024/02/03 06:09:25;;;;;;;1.15;1.13;;;8.40;99.90;;;;;;4973662;28;20209;-81
2024/02/03 06:11:58;;;;;;;1.02;1.02;;;8.30;99.90;;;;;;4971272;29;20274;-79
2024/02/03 06:14:26;;;;;;;0.50;0.50;;;8.40;99.90;;;;;;4965545;28;20291;-80
2024/02/03 06:16:56;;;;;;;1.02;1.02;;;8.40;99.90;;;;;;4963846;28;20204;-81
2024/02/03 06:19:24;;;;;;;1.67;1.60;;;8.40;99.90;;;;;;4962801;28;20227;-81
2024/02/03 06:21:51;;;;;;;0.40;0.40;;;8.40;99.90;;;;;;4954854;28;20202;-81
2024/02/03 06:24:19;;;;;;;0.50;0.50;;;8.40;99.90;;;;;;4960966;28;20508;-80
2024/02/03 06:26:46;;;;;;;1.00;1.00;;;8.40;99.90;;;;;;4963183;29;20232;-80
2024/02/03 06:29:14;;;;;;;1.77;1.73;;;8.40;99.90;;;;;;4947166;29;20275;-77
2024/02/03 06:31:41;;;;;;;0.60;0.60;;;8.40;99.90;;;;;;4977077;28;20265;-81
2024/02/03 06:34:14;;;;;;;1.38;1.27;;;8.40;99.90;;;;;;4974232;29;20218;-79
2024/02/03 06:36:43;;;;;;;0.75;0.75;;;8.30;99.90;;;;;;4987423;28;20245;-81
2024/02/03 06:39:13;;;;;;;1.38;1.38;;;8.40;99.90;;;;;;4969739;29;20196;-80
2024/02/03 06:41:41;;;;;;;0.50;0.50;;;8.30;99.90;;;;;;4954551;28;20219;-80
2024/02/03 06:44:09;;;;;;;0.50;0.50;;;8.40;99.90;;;;;;4955560;28;20454;-83
2024/02/03 06:46:39;;;;;;;1.02;1.02;;;8.40;99.90;;;;;;4950683;28;20255;-79
2024/02/03 06:49:08;;;;;;;0.70;0.70;;;8.40;99.90;;;;;;4964363;28;20200;-81
2024/02/03 06:51:38;;;;;;;0.40;0.40;;;8.40;99.90;;;;;;4949038;28;20231;-82
2024/02/03 06:54:08;;;;;;;1.02;1.02;;;8.40;99.90;;;;;;4957974;28;20709;-82
2024/02/03 06:56:37;;;;;;;0.80;0.80;;;8.50;99.90;;;;;;4953851;28;20207;-81
2024/02/03 06:59:04;;;;;;;0.40;0.40;;;8.50;99.90;;;;;;4939772;29;20278;-82
2024/02/03 07:01:31;;;;;;;0.45;0.45;;;8.50;99.90;;;;;;4952355;28;20222;-77
2024/02/03 07:04:01;;;;;;;0.50;0.50;;;8.50;99.90;;;;;;4953140;28;20200;-80
2024/02/03 07:06:31;;;;;;;1.50;1.48;;;8.60;99.90;;;;;;4949744;28;20233;-81
2024/02/03 07:09:02;;;;;;;0.57;0.57;;;8.60;99.90;;;;;;4953442;28;20212;-78
2024/02/03 07:11:29;;;;;;;1.55;1.45;;;8.60;99.90;;;;;;4945977;28;20555;-81
2024/02/03 07:13:56;;;;;;;2.15;2.05;;;8.70;99.90;;;;;;4959538;28;20200;-80
2024/02/03 07:16:23;;;;;;;0.70;0.70;;;8.70;99.90;;;;;;4954982;28;20223;-82
2024/02/03 07:18:51;;;;;;;0.50;0.50;;;8.70;99.90;;;;;;4943045;28;20405;-82
2024/02/03 07:21:21;;;;;;;0.40;0.40;;;8.70;99.90;;;;;;4946389;28;20223;-80
2024/02/03 07:23:49;;;;;;;1.10;1.00;;;8.70;99.90;;;;;;4953166;28;20216;-81
2024/02/03 07:26:18;;;;;;;0.40;0.40;;;8.70;99.90;;;;;;4957607;28;20203;-81
2024/02/03 07:28:50;;;;;;;0.50;0.50;;;8.70;99.90;;;;;;4945746;29;20547;-83
2024/02/03 07:31:31;;;;;;;2.05;1.95;;;8.80;99.90;;;;;;4975948;28;20495;-81
2024/02/03 07:34:00;;;;;;;0.80;0.80;;;8.80;99.90;;;;;;4962831;28;20207;-81
2024/02/03 07:36:27;;;;;;;0.68;0.68;;;8.80;99.90;;;;;;4961446;28;20433;-82
2024/02/03 07:39:01;;;;;;;1.48;1.38;;;8.80;99.90;;;;;;4957681;28;20214;-79
2024/02/03 07:41:28;;;;;;;1.15;1.15;;;8.80;99.90;;;;;;4938993;29;20213;-81
2024/02/03 07:43:55;;;;;;;7.07;2.42;;;8.90;99.90;;;;;;4954297;28;20242;-82
2024/02/03 07:46:22;;;;;;;0.70;0.70;;;8.80;99.90;;;;;;4943065;29;20546;-79
2024/02/03 07:48:49;;;;;;;1.60;1.50;;;8.90;99.90;;;;;;4958452;28;20229;-82
2024/02/03 07:51:16;;;;;;;0.40;0.40;;;8.90;99.90;;;;;;4952975;28;20368;-79
2024/02/03 07:53:43;;;;;;;0.50;0.50;;;8.90;99.90;;;;;;4953883;28;20389;-82
2024/02/03 07:56:11;;;;;;;2.25;2.05;;;8.90;99.90;;;;;;4970171;28;20205;-82
2024/02/03 07:58:39;;;;;;;0.40;0.40;;;8.90;99.90;;;;;;4965468;28;20281;-78
2024/02/03 08:01:08;;;;;;;1.20;1.20;;;8.90;99.90;;;;;;4949257;29;20328;-83
2024/02/03 08:03:37;;;;;;;0.40;0.40;;;8.90;99.90;;;;;;4950715;29;20373;-80
2024/02/03 08:06:06;;;;;;;0.40;0.40;;;8.90;99.90;;;;;;4947670;28;20210;-79
2024/02/03 08:08:35;;;;;;;1.45;1.40;;;9.00;99.90;;;;;;4956829;28;20218;-84
2024/02/03 08:11:02;;;;;;;1.15;1.15;;;9.00;99.90;;;;;;4961192;28;20765;-81
2024/02/03 08:13:29;;;;;;;2.03;1.90;;;9.00;99.90;;;;;;4951429;28;20593;-80
2024/02/03 08:16:01;;;;;;;0.40;0.40;;;9.00;99.90;;;;;;4956231;28;20278;-80
2024/02/03 08:18:32;;;;;;;0.50;0.50;;;9.00;99.90;;;;;;4949600;28;20231;-79
2024/02/03 08:21:02;;;;;;;1.02;1.02;;;9.10;99.90;;;;;;4963050;28;20279;-80
2024/02/03 08:23:30;;;;;;;0.60;0.60;;;9.10;99.90;;;;;;4957188;28;20246;-81
2024/02/03 08:25:58;;;;;;;2.35;2.25;;;9.10;99.90;;;;;;4951887;28;20206;-80
2024/02/03 08:28:26;;;;;;;0.90;0.90;;;9.10;99.90;;;;;;4933701;29;20219;-83
2024/02/03 08:30:55;;;;;;;0.50;0.50;;;9.00;99.90;;;;;;4947831;28;20237;-83
2024/02/03 08:33:25;;;;;;;0.40;0.40;;;9.00;99.90;;;;;;4951057;29;20234;-82
2024/02/03 08:35:56;;;;;;;0.50;0.50;;;9.00;99.90;;;;;;4938190;29;20504;-82
2024/02/03 08:38:26;;;;;;;0.40;0.40;;;9.00;99.90;;;;;;4952986;28;20220;-81
2024/02/03 08:40:53;;;;;;;0.85;0.85;;;9.00;99.90;;;;;;4952169;28;20274;-83
2024/02/03 08:43:20;;;;;;;0.50;0.50;;;9.00;99.90;;;;;;4948197;28;20238;-80
2024/02/03 08:45:48;;;;;;;1.42;1.33;;;9.00;99.90;;;;;;4955003;28;20215;-82
2024/02/03 08:48:15;;;;;;;0.40;0.40;;;9.00;99.90;;;;;;4943774;29;20230;-80
2024/02/03 08:50:42;;;;;;;0.40;0.40;;;9.00;99.90;;;;;;4934658;29;20216;-79
2024/02/03 08:53:10;;;;;;;0.40;0.40;;;8.90;99.90;;;;;;4947568;28;20290;-82
2024/02/03 08:55:36;;;;;;;3.15;1.58;;;8.90;99.90;;;;;;4955009;28;20204;-82
2024/02/03 08:58:05;;;;;;;0.40;0.40;;;9.00;99.90;;;;;;4941301;28;20204;-82
2024/02/03 09:00:36;;;;;;;2.15;2.05;;;8.90;99.90;;;;;;4965806;28;20204;-82
2024/02/03 09:03:06;;;;;;;0.50;0.50;;;8.90;99.90;;;;;;4962667;28;20211;-83
2024/02/03 09:05:39;;;;;;;0.40;0.40;;;9.00;99.90;;;;;;4949815;29;20471;-83
2024/02/03 09:08:08;;;;;;;0.40;0.40;;;9.00;99.90;;;;;;4951086;28;20203;-82
2024/02/03 09:10:37;;;;;;;1.73;1.30;;;9.00;99.90;;;;;;4933195;29;20211;-82
2024/02/03 09:13:05;;;;;;;0.40;0.40;;;8.90;99.90;;;;;;4938713;28;20270;-83
2024/02/03 09:15:32;;;;;;;0.82;0.82;;;8.80;99.90;;;;;;4933733;29;20219;-86
2024/02/03 09:17:59;;;;;;;2.08;1.35;;;8.80;99.90;;;;;;4937242;28;20218;-84
2024/02/03 09:20:32;;;;;;;0.52;0.52;;;8.80;99.90;;;;;;4939483;29;20202;-83
2024/02/03 09:22:59;;;;;;;0.75;0.75;;;8.80;99.90;;;;;;4956748;28;20278;-82
2024/02/03 09:25:27;;;;;;;2.33;2.15;;;8.80;99.90;;;;;;4957580;28;20279;-83
2024/02/03 09:27:57;;;;;;;0.40;0.40;;;8.70;99.90;;;;;;4951174;28;20210;-86
2024/02/03 09:30:24;;;;;;;0.40;0.40;;;8.70;99.90;;;;;;4971208;28;20230;-85
2024/02/03 09:32:52;;;;;;;0.40;0.40;;;8.60;99.90;;;;;;4954774;28;20236;-83
2024/02/03 09:35:19;;;;;;;1.27;1.17;;;8.60;99.90;;;;;;4963380;28;20214;-85
2024/02/03 09:37:46;;;;;;;1.00;0.98;;;8.60;99.90;;;;;;4940930;29;20249;-83
2024/02/03 09:40:23;;;;;;;1.02;1.02;;;8.60;99.90;;;;;;4965541;28;20210;-82
2024/02/03 09:42:51;;;;;;;1.10;1.10;;;8.60;99.90;;;;;;4944064;29;20203;-81
2024/02/03 09:45:20;;;;;;;0.40;0.40;;;8.60;99.90;;;;;;4954399;28;20195;-80
2024/02/03 09:47:47;;;;;;;0.40;0.40;;;8.60;99.90;;;;;;4942011;29;20211;-85
2024/02/03 09:50:15;;;;;;;1.25;1.20;;;8.60;99.90;;;;;;4965241;28;20422;-86
2024/02/03 09:52:42;;;;;;;2.42;2.33;;;8.50;99.90;;;;;;4943412;29;20227;-80
2024/02/03 09:55:09;;;;;;;0.50;0.50;;;8.40;99.90;;;;;;4960775;28;20207;-83
2024/02/03 09:57:36;;;;;;;1.00;1.00;;;8.50;99.90;;;;;;4961853;28;20206;-80
2024/02/03 10:00:05;;;;;;;1.80;1.75;;;8.50;99.90;;;;;;4938526;28;20550;-82
2024/02/03 10:02:32;;;;;;;0.60;0.60;;;8.60;99.90;;;;;;4961192;28;20407;-81
2024/02/03 10:04:59;;;;;;;1.00;1.00;;;8.60;99.90;;;;;;4957519;28;20204;-82
2024/02/03 10:07:26;;;;;;;0.65;0.65;;;8.70;99.90;;;;;;4962212;28;20484;-80
2024/02/03 10:10:04;;;;;;;0.47;0.47;;;8.80;99.90;;;;;;4938137;28;20207;-84
2024/02/03 10:12:35;;;;;;;2.35;2.25;;;8.70;99.90;;;;;;4964409;28;20235;-84
2024/02/03 10:15:05;;;;;;;0.50;0.50;;;9.10;99.90;;;;;;4957624;28;20214;-80
2024/02/03 10:17:34;;;;;;;0.98;0.98;;;9.40;99.90;;;;;;4965265;28;20282;-80
2024/02/03 10:20:01;;;;;;;1.30;1.27;;;9.80;99.90;;;;;;4961248;28;20215;-80
2024/02/03 10:22:28;;;;;;;0.50;0.50;;;9.80;99.90;;;;;;4938873;29;20207;-81
2024/02/03 10:25:06;;;;;;;0.40;0.40;;;10.00;99.90;;;;;;4956112;28;20241;-82
2024/02/03 10:27:32;;;;;;;0.95;0.95;;;10.20;99.90;;;;;;4952650;29;20226;-79
2024/02/03 10:29:59;;;;;;;0.98;0.98;;;10.10;99.90;;;;;;4964740;28;20299;-86
2024/02/03 10:32:27;;;;;;;0.60;0.60;;;10.00;99.90;;;;;;4959912;28;20230;-80
2024/02/03 10:34:54;;;;;;;0.90;0.90;;;10.00;99.90;;;;;;4949865;28;20264;-82
2024/02/03 10:37:22;;;;;;;0.40;0.40;;;9.90;99.90;;;;;;4932308;29;20546;-83
2024/02/03 10:39:48;;;;;;;0.80;0.80;;;10.00;99.90;;;;;;4944282;29;20265;-84
2024/02/03 10:42:22;;;;;;;0.65;0.60;;;10.00;99.90;;;;;;4959491;28;20199;-82
2024/02/03 10:44:52;;;;;;;1.52;1.52;;;9.90;99.90;;;;;;4957834;29;20281;-80
2024/02/03 10:47:23;;;;;;;0.40;0.40;;;10.00;99.90;;;;;;4945461;29;20543;-82
2024/02/03 10:49:54;;;;;;;1.63;1.52;;;9.80;99.90;;;;;;4945339;28;20199;-85
2024/02/03 10:52:23;;;;;;;0.73;0.73;;;9.90;99.90;;;;;;4964555;28;20234;-81
2024/02/03 10:54:54;;;;;;;1.67;1.58;;;9.80;99.90;;;;;;4956781;28;20246;-82
2024/02/03 10:57:24;;;;;;;0.70;0.70;;;9.70;99.90;;;;;;4932143;29;20275;-80
2024/02/03 11:00:05;;;;;;;0.60;0.60;;;9.70;99.90;;;;;;4940921;29;20215;-79
2024/02/03 11:02:32;;;;;;;0.60;0.60;;;9.90;99.90;;;;;;4939416;29;20293;-84
2024/02/03 11:05:00;;;;;;;0.50;0.50;;;9.80;99.90;;;;;;4954932;28;20282;-83
2024/02/03 11:07:30;;;;;;;0.85;0.85;;;10.00;99.90;;;;;;4966357;28;20368;-81
2024/02/03 11:10:03;;;;;;;0.40;0.40;;;10.20;99.90;;;;;;4954941;28;20251;-86
2024/02/03 11:12:34;;;;;;;0.40;0.40;;;10.10;99.90;;;;;;4969818;28;20203;-80
2024/02/03 11:15:08;;;;;;;2.08;1.98;;;9.90;99.90;;;;;;4949630;28;20672;-80
2024/02/03 11:17:34;;;;;;;0.50;0.50;;;10.00;99.90;;;;;;4963789;29;20211;-82
2024/02/03 11:20:06;;;;;;;0.93;0.93;;;10.00;99.90;;;;;;4952688;28;20203;-83
2024/02/03 11:22:38;;;;;;;0.50;0.50;;;10.10;99.90;;;;;;4948823;28;20246;-82
2024/02/03 11:25:07;;;;;;;0.40;0.40;;;10.10;99.90;;;;;;4962107;28;20199;-81
2024/02/03 11:27:34;;;;;;;0.50;0.50;;;10.10;99.90;;;;;;4944471;29;21503;-81
2024/02/03 11:30:05;;;;;;;1.85;1.50;;;10.20;99.90;;;;;;4958052;28;20199;-79
2024/02/03 11:32:32;;;;;;;0.50;0.50;;;10.20;99.90;;;;;;4953735;28;20243;-86
2024/02/03 11:35:04;;;;;;;0.40;0.40;;;10.10;99.90;;;;;;4958129;28;20200;-81
2024/02/03 11:37:31;;;;;;;0.80;0.80;;;10.10;99.90;;;;;;4935860;29;20259;-82
2024/02/03 11:40:06;;;;;;;0.40;0.40;;;10.20;99.90;;;;;;4958936;28;20326;-83
2024/02/03 11:42:34;;;;;;;0.50;0.50;;;10.10;99.90;;;;;;4949253;28;20217;-80
2024/02/03 11:45:13;;;;;;;0.50;0.50;;;10.20;99.90;;;;;;4945808;29;20214;-84
2024/02/03 11:47:41;;;;;;;0.40;0.40;;;10.30;99.90;;;;;;4962128;28;20453;-81
2024/02/03 11:50:12;;;;;;;0.40;0.40;;;10.10;99.90;;;;;;4960779;28;20500;-81
2024/02/03 11:52:46;;;;;;;0.40;0.40;;;10.10;99.90;;;;;;4952788;28;20250;-80
2024/02/03 11:55:14;;;;;;;2.67;2.58;;;10.10;99.90;;;;;;4942945;29;20215;-82
2024/02/03 11:57:42;;;;;;;0.50;0.50;;;10.30;99.90;;;;;;4988571;28;20191;-84
2024/02/03 12:00:13;;;;;;;0.40;0.40;;;10.60;99.90;;;;;;4978352;28;20191;-83
2024/02/03 12:02:42;;;;;;;0.40;0.40;;;10.70;99.90;;;;;;4959245;28;20199;-80
2024/02/03 12:05:10;;;;;;;0.40;0.40;;;11.00;99.90;;;;;;4955361;28;20195;-82
2024/02/03 12:07:41;;;;;;;0.50;0.50;;;10.70;99.90;;;;;;4959982;28;20214;-80
2024/02/03 12:10:09;;;;;;;0.40;0.40;;;10.80;99.90;;;;;;4956773;28;20260;-83
2024/02/03 12:12:36;;;;;;;0.50;0.50;;;10.90;99.90;;;;;;4953245;28;20279;-83
2024/02/03 12:15:06;;;;;;;0.60;0.60;;;10.80;99.90;;;;;;4930521;28;20287;-85
2024/02/03 12:17:34;;;;;;;0.43;0.43;;;10.70;99.90;;;;;;4956015;29;20271;-83
2024/02/03 12:20:01;;;;;;;0.60;0.60;;;10.80;99.90;;;;;;4933226;29;20212;-81
2024/02/03 12:22:29;;;;;;;0.50;0.50;;;10.70;99.90;;;;;;4950819;28;20495;-85
2024/02/03 12:25:00;;;;;;;2.35;0.80;;;10.50;99.90;;;;;;4956700;28;20211;-81
2024/02/03 12:27:28;;;;;;;0.70;0.70;;;10.50;99.90;;;;;;4960811;28;20500;-83
2024/02/03 12:29:58;;;;;;;0.50;0.50;;;10.50;99.90;;;;;;4953138;28;20218;-82
2024/02/03 12:32:26;;;;;;;0.50;0.50;;;10.40;99.90;;;;;;4937180;28;20368;-86
2024/02/03 12:34:53;;;;;;;0.82;0.82;;;10.50;99.90;;;;;;4933585;29;20238;-82
2024/02/03 12:37:21;;;;;;;0.40;0.40;;;10.50;99.90;;;;;;4944916;28;20286;-80
2024/02/03 12:39:47;;;;;;;0.50;0.50;;;10.50;99.90;;;;;;4927822;29;20219;-84
2024/02/03 12:42:15;;;;;;;0.50;0.50;;;10.60;99.90;;;;;;4940032;28;20519;-83
2024/02/03 12:44:42;;;;;;;0.70;0.70;;;10.60;99.90;;;;;;4928978;29;20212;-81
2024/02/03 12:47:10;;;;;;;0.70;0.70;;;10.70;99.90;;;;;;4948631;28;20203;-82
2024/02/03 12:49:37;;;;;;;0.95;0.70;;;10.90;99.90;;;;;;4941797;29;20246;-81
2024/02/03 12:52:05;;;;;;;0.50;0.50;;;10.90;99.90;;;;;;4954246;28;20210;-82
2024/02/03 12:54:32;;;;;;;0.50;0.50;;;10.70;99.90;;;;;;4955359;28;20318;-80
2024/02/03 12:56:59;;;;;;;0.40;0.40;;;10.60;99.90;;;;;;4954744;28;20507;-81
2024/02/03 12:59:26;;;;;;;0.50;0.50;;;10.30;99.90;;;;;;4963745;28;20230;-84
2024/02/03 13:01:53;;;;;;;0.60;0.60;;;10.20;99.90;;;;;;4946115;29;20250;-80
2024/02/03 13:04:20;;;;;;;0.40;0.40;;;10.20;99.90;;;;;;4950624;28;20421;-82